createdAt,value
2023-01-25T16:03:45.766Z,60
2023-01-25T16:03:45.805Z,71
2023-01-25T16:03:45.845Z,35
2023-01-25T16:03:45.895Z,36
2023-01-25T16:03:45.935Z,37
2023-01-25T16:03:45.975Z,37
2023-01-25T16:03:46.015Z,38
2023-01-25T16:03:46.065Z,38
2023-01-25T16:03:46.105Z,38
2023-01-25T16:03:46.145Z,38
2023-01-25T16:03:46.185Z,38
2023-01-25T16:03:46.235Z,38
2023-01-25T16:03:46.275Z,38
2023-01-25T16:03:46.315Z,38
2023-01-25T16:03:46.365Z,38
2023-01-25T16:03:46.405Z,38
2023-01-25T16:03:46.445Z,38
2023-01-25T16:03:46.486Z,38
2023-01-25T16:03:46.535Z,42
2023-01-25T16:03:46.575Z,42
2023-01-25T16:03:46.616Z,43
2023-01-25T16:03:46.655Z,43
2023-01-25T16:03:46.705Z,43
2023-01-25T16:03:46.745Z,43
2023-01-25T16:03:46.785Z,35
2023-01-25T16:03:46.825Z,43
2023-01-25T16:03:46.875Z,35
2023-01-25T16:03:46.915Z,35
2023-01-25T16:03:46.955Z,36
2023-01-25T16:03:47.005Z,36
2023-01-25T16:03:47.045Z,36
2023-01-25T16:03:47.086Z,36
2023-01-25T16:03:47.126Z,36
2023-01-25T16:03:47.175Z,36
2023-01-25T16:03:47.216Z,35
2023-01-25T16:03:47.256Z,35
2023-01-25T16:03:47.296Z,43
2023-01-25T16:03:47.346Z,43
2023-01-25T16:03:47.386Z,42
2023-01-25T16:03:47.426Z,42
2023-01-25T16:03:47.465Z,42
2023-01-25T16:03:47.516Z,42
2023-01-25T16:03:47.556Z,42
2023-01-25T16:03:47.595Z,41
2023-01-25T16:03:47.646Z,41
2023-01-25T16:03:47.686Z,41
2023-01-25T16:03:47.726Z,42
2023-01-25T16:03:47.765Z,41
2023-01-25T16:03:47.816Z,42
2023-01-25T16:03:47.856Z,39
2023-01-25T16:03:47.895Z,42
2023-01-25T16:03:47.936Z,43
2023-01-25T16:03:47.985Z,43
2023-01-25T16:03:48.026Z,43
2023-01-25T16:03:48.065Z,44
2023-01-25T16:03:48.106Z,44
2023-01-25T16:03:48.155Z,44
2023-01-25T16:03:48.195Z,43
2023-01-25T16:03:48.236Z,43
2023-01-25T16:03:48.285Z,43
2023-01-25T16:03:48.325Z,42
2023-01-25T16:03:48.366Z,42
2023-01-25T16:03:48.406Z,41
2023-01-25T16:03:48.456Z,41
2023-01-25T16:03:48.496Z,40
2023-01-25T16:03:48.536Z,40
2023-01-25T16:03:48.575Z,39
2023-01-25T16:03:48.626Z,39
2023-01-25T16:03:48.666Z,38
2023-01-25T16:03:48.705Z,38
2023-01-25T16:03:48.745Z,37
2023-01-25T16:03:48.796Z,36
2023-01-25T16:03:48.836Z,36
2023-01-25T16:03:48.875Z,35
2023-01-25T16:03:48.927Z,43
2023-01-25T16:03:48.966Z,42
2023-01-25T16:03:49.005Z,42
2023-01-25T16:03:49.045Z,42
2023-01-25T16:03:49.095Z,41
2023-01-25T16:03:49.135Z,41
2023-01-25T16:03:49.175Z,40
2023-01-25T16:03:49.215Z,40
2023-01-25T16:03:49.265Z,41
2023-01-25T16:03:49.305Z,42
2023-01-25T16:03:49.345Z,42
2023-01-25T16:03:49.385Z,42
2023-01-25T16:03:49.435Z,43
2023-01-25T16:03:49.475Z,43
2023-01-25T16:03:49.515Z,43
2023-01-25T16:03:49.565Z,43
2023-01-25T16:03:49.606Z,43
2023-01-25T16:03:49.645Z,43
2023-01-25T16:03:49.685Z,42
2023-01-25T16:03:49.736Z,42
2023-01-25T16:03:49.775Z,42
2023-01-25T16:03:49.815Z,41
2023-01-25T16:03:49.856Z,41
2023-01-25T16:03:49.905Z,40
2023-01-25T16:03:49.945Z,40
2023-01-25T16:03:49.985Z,40
2023-01-25T16:03:50.025Z,40
2023-01-25T16:03:50.075Z,40
2023-01-25T16:03:50.115Z,38
2023-01-25T16:03:50.156Z,38
2023-01-25T16:03:50.207Z,38
2023-01-25T16:03:50.245Z,38
2023-01-25T16:03:50.286Z,40
2023-01-25T16:03:50.325Z,40
2023-01-25T16:03:50.375Z,40
2023-01-25T16:03:50.416Z,40
2023-01-25T16:03:50.455Z,40
2023-01-25T16:03:50.495Z,40
2023-01-25T16:03:50.545Z,40
2023-01-25T16:03:50.585Z,40
2023-01-25T16:03:50.625Z,41
2023-01-25T16:03:50.665Z,41
2023-01-25T16:03:50.715Z,41
2023-01-25T16:03:50.755Z,41
2023-01-25T16:03:50.795Z,40
2023-01-25T16:03:50.845Z,40
2023-01-25T16:03:50.885Z,41
2023-01-25T16:03:50.925Z,41
2023-01-25T16:03:50.965Z,43
2023-01-25T16:03:51.015Z,43
2023-01-25T16:03:51.055Z,35
2023-01-25T16:03:51.095Z,35
2023-01-25T16:03:51.136Z,36
2023-01-25T16:03:51.186Z,37
2023-01-25T16:03:51.226Z,37
2023-01-25T16:03:51.266Z,37
2023-01-25T16:03:51.306Z,37
2023-01-25T16:03:51.356Z,37
2023-01-25T16:03:51.396Z,37
2023-01-25T16:03:51.436Z,37
2023-01-25T16:03:51.486Z,39
2023-01-25T16:03:51.526Z,40
2023-01-25T16:03:51.566Z,40
2023-01-25T16:03:51.605Z,40
2023-01-25T16:03:51.656Z,39
2023-01-25T16:03:51.696Z,39
2023-01-25T16:03:51.736Z,39
2023-01-25T16:03:51.776Z,39
2023-01-25T16:03:51.826Z,39
2023-01-25T16:03:51.866Z,39
2023-01-25T16:03:51.906Z,40
2023-01-25T16:03:51.946Z,40
2023-01-25T16:03:51.996Z,40
2023-01-25T16:03:52.035Z,39
2023-01-25T16:03:52.075Z,39
2023-01-25T16:03:52.126Z,41
2023-01-25T16:03:52.165Z,42
2023-01-25T16:03:52.205Z,42
2023-01-25T16:03:52.246Z,42
2023-01-25T16:03:52.295Z,42
2023-01-25T16:03:52.335Z,42
2023-01-25T16:03:52.376Z,42
2023-01-25T16:03:52.415Z,42
2023-01-25T16:03:52.466Z,42
2023-01-25T16:03:52.506Z,42
2023-01-25T16:03:52.546Z,42
2023-01-25T16:03:52.586Z,42
2023-01-25T16:03:52.635Z,42
2023-01-25T16:03:52.676Z,44
2023-01-25T16:03:52.716Z,44
2023-01-25T16:03:52.766Z,44
2023-01-25T16:03:52.806Z,44
2023-01-25T16:03:52.846Z,44
2023-01-25T16:03:52.886Z,44
2023-01-25T16:03:52.936Z,44
2023-01-25T16:03:52.976Z,44
2023-01-25T16:03:53.016Z,44
2023-01-25T16:03:53.056Z,44
2023-01-25T16:03:53.106Z,44
2023-01-25T16:03:53.145Z,44
2023-01-25T16:03:53.186Z,44
2023-01-25T16:03:53.226Z,44
2023-01-25T16:03:53.276Z,44
2023-01-25T16:03:53.316Z,44
2023-01-25T16:03:53.356Z,44
2023-01-25T16:03:53.406Z,44
2023-01-25T16:03:53.446Z,44
2023-01-25T16:03:53.486Z,44
2023-01-25T16:03:53.526Z,44
2023-01-25T16:03:53.576Z,44
2023-01-25T16:03:53.616Z,43
2023-01-25T16:03:53.656Z,43
2023-01-25T16:03:53.698Z,44
2023-01-25T16:03:53.746Z,44
2023-01-25T16:03:53.786Z,44
2023-01-25T16:03:53.826Z,44
2023-01-25T16:03:53.866Z,44
2023-01-25T16:03:53.916Z,44
2023-01-25T16:03:53.956Z,44
2023-01-25T16:03:53.996Z,44
2023-01-25T16:03:54.046Z,43
2023-01-25T16:03:54.086Z,43
2023-01-25T16:03:54.126Z,43
2023-01-25T16:03:54.166Z,43
2023-01-25T16:03:54.217Z,43
2023-01-25T16:03:54.257Z,43
2023-01-25T16:03:54.297Z,42
2023-01-25T16:03:54.336Z,42
2023-01-25T16:03:54.386Z,42
2023-01-25T16:03:54.426Z,42
2023-01-25T16:03:54.466Z,42
2023-01-25T16:03:54.506Z,43
2023-01-25T16:03:54.556Z,43
2023-01-25T16:03:54.596Z,43
2023-01-25T16:03:54.636Z,43
2023-01-25T16:03:54.686Z,43
2023-01-25T16:03:54.726Z,43
2023-01-25T16:03:54.766Z,43
2023-01-25T16:03:54.806Z,43
2023-01-25T16:03:54.856Z,43
2023-01-25T16:03:54.896Z,43
2023-01-25T16:03:54.936Z,42
2023-01-25T16:03:54.976Z,42
2023-01-25T16:03:55.026Z,42
2023-01-25T16:03:55.066Z,42
2023-01-25T16:03:55.106Z,41
2023-01-25T16:03:55.146Z,41
2023-01-25T16:03:55.196Z,41
2023-01-25T16:03:55.236Z,42
2023-01-25T16:03:55.276Z,42
2023-01-25T16:03:55.326Z,42
2023-01-25T16:03:55.366Z,42
2023-01-25T16:03:55.405Z,42
2023-01-25T16:03:55.446Z,41
2023-01-25T16:03:55.495Z,41
2023-01-25T16:03:55.535Z,41
2023-01-25T16:03:55.576Z,41
2023-01-25T16:03:55.617Z,41
2023-01-25T16:03:55.665Z,41
2023-01-25T16:03:55.706Z,41
2023-01-25T16:03:55.746Z,40
2023-01-25T16:03:55.785Z,40
2023-01-25T16:03:55.836Z,39
2023-01-25T16:03:55.876Z,39
2023-01-25T16:03:55.915Z,39
2023-01-25T16:03:55.966Z,38
2023-01-25T16:03:56.006Z,38
2023-01-25T16:03:56.045Z,38
2023-01-25T16:03:56.085Z,38
2023-01-25T16:03:56.138Z,38
2023-01-25T16:03:56.176Z,38
2023-01-25T16:03:56.216Z,37
2023-01-25T16:03:56.255Z,37
2023-01-25T16:03:56.306Z,37
2023-01-25T16:03:56.345Z,36
2023-01-25T16:03:56.386Z,36
2023-01-25T16:03:56.426Z,35
2023-01-25T16:03:56.475Z,35
2023-01-25T16:03:56.515Z,36
2023-01-25T16:03:56.556Z,36
2023-01-25T16:03:56.605Z,37
2023-01-25T16:03:56.645Z,37
2023-01-25T16:03:56.686Z,37
2023-01-25T16:03:56.726Z,36
2023-01-25T16:03:56.776Z,36
2023-01-25T16:03:56.816Z,35
2023-01-25T16:03:56.856Z,35
2023-01-25T16:03:56.896Z,35
2023-01-25T16:03:56.945Z,43
2023-01-25T16:03:56.986Z,43
2023-01-25T16:03:57.027Z,43
2023-01-25T16:03:57.066Z,43
2023-01-25T16:03:57.116Z,35
2023-01-25T16:03:57.156Z,36
2023-01-25T16:03:57.196Z,36
2023-01-25T16:03:57.246Z,36
2023-01-25T16:03:57.286Z,35
2023-01-25T16:03:57.326Z,35
2023-01-25T16:03:57.366Z,43
2023-01-25T16:03:57.417Z,43
2023-01-25T16:03:57.456Z,42
2023-01-25T16:03:57.496Z,42
2023-01-25T16:03:57.536Z,42
2023-01-25T16:03:57.586Z,42
2023-01-25T16:03:57.626Z,42
2023-01-25T16:03:57.667Z,41
2023-01-25T16:03:57.706Z,41
2023-01-25T16:03:57.756Z,41
2023-01-25T16:03:57.796Z,40
2023-01-25T16:03:57.836Z,40
2023-01-25T16:03:57.886Z,40
2023-01-25T16:03:57.926Z,40
2023-01-25T16:03:57.966Z,40
2023-01-25T16:03:58.006Z,40
2023-01-25T16:03:58.056Z,38
2023-01-25T16:03:58.096Z,40
2023-01-25T16:03:58.135Z,38
2023-01-25T16:03:58.176Z,38
2023-01-25T16:03:58.226Z,38
2023-01-25T16:03:58.266Z,43
2023-01-25T16:55:11.960Z,71
2023-01-25T16:55:12.000Z,63
2023-01-25T16:55:12.050Z,60
2023-01-25T16:55:12.090Z,55
2023-01-25T16:55:12.131Z,54
2023-01-25T16:55:12.170Z,54
2023-01-25T16:55:12.220Z,54
2023-01-25T16:55:12.260Z,52
2023-01-25T16:55:12.300Z,52
2023-01-25T16:55:12.350Z,52
2023-01-25T16:55:12.390Z,52
2023-01-25T16:55:12.430Z,52
2023-01-25T16:55:12.470Z,52
2023-01-25T16:55:12.519Z,52
2023-01-25T16:55:12.563Z,52
2023-01-25T16:55:12.600Z,40
2023-01-25T16:55:12.641Z,40
2023-01-25T16:55:12.690Z,40
2023-01-25T16:55:12.730Z,52
2023-01-25T16:55:12.770Z,40
2023-01-25T16:55:12.810Z,52
2023-01-25T16:55:12.861Z,40
2023-01-25T16:55:12.899Z,87
2023-01-25T16:55:12.939Z,87
2023-01-25T16:55:12.991Z,86
2023-01-25T16:55:13.030Z,86
2023-01-25T16:55:13.070Z,86
2023-01-25T16:55:13.112Z,84
2023-01-25T16:55:13.162Z,41
2023-01-25T16:55:13.200Z,41
2023-01-25T16:55:13.240Z,41
2023-01-25T16:55:13.282Z,46
2023-01-25T16:55:13.332Z,46
2023-01-25T16:55:13.370Z,46
2023-01-25T16:55:13.411Z,45
2023-01-25T16:55:13.450Z,46
2023-01-25T16:55:13.500Z,46
2023-01-25T16:55:13.541Z,46
2023-01-25T16:55:13.581Z,46
2023-01-25T16:55:13.633Z,45
2023-01-25T16:55:13.670Z,45
2023-01-25T16:55:13.711Z,45
2023-01-25T16:55:13.750Z,46
2023-01-25T16:55:13.800Z,46
2023-01-25T16:55:13.842Z,46
2023-01-25T16:55:13.880Z,46
2023-01-25T16:55:13.921Z,45
2023-01-25T16:55:13.970Z,45
2023-01-25T16:55:14.012Z,45
2023-01-25T16:55:14.050Z,45
2023-01-25T16:55:14.099Z,45
2023-01-25T16:55:14.140Z,45
2023-01-25T16:55:14.179Z,45
2023-01-25T16:55:14.229Z,45
2023-01-25T16:55:14.270Z,49
2023-01-25T16:55:14.312Z,49
2023-01-25T16:55:14.350Z,49
2023-01-25T16:55:14.400Z,49
2023-01-25T16:55:14.443Z,49
2023-01-25T16:55:14.482Z,49
2023-01-25T16:55:14.519Z,49
2023-01-25T16:55:14.570Z,49
2023-01-25T16:55:14.610Z,49
2023-01-25T16:55:14.650Z,49
2023-01-25T16:55:14.694Z,44
2023-01-25T16:55:14.744Z,44
2023-01-25T16:55:14.780Z,41
2023-01-25T16:55:14.820Z,41
2023-01-25T16:55:14.870Z,39
2023-01-25T16:55:14.910Z,84
2023-01-25T16:55:14.950Z,84
2023-01-25T16:55:14.992Z,84
2023-01-25T16:55:15.040Z,86
2023-01-25T16:55:15.080Z,86
2023-01-25T16:55:15.119Z,87
2023-01-25T16:55:15.162Z,87
2023-01-25T16:55:15.209Z,87
2023-01-25T16:55:15.250Z,74
2023-01-25T16:55:15.290Z,74
2023-01-25T16:55:15.342Z,40
2023-01-25T16:55:15.379Z,40
2023-01-25T16:55:15.420Z,52
2023-01-25T16:55:15.470Z,54
2023-01-25T16:55:15.510Z,55
2023-01-25T16:55:15.550Z,60
2023-01-25T16:55:15.593Z,60
2023-01-25T16:55:15.643Z,40
2023-01-25T16:55:15.680Z,74
2023-01-25T16:55:15.721Z,87
2023-01-25T16:55:15.763Z,87
2023-01-25T16:55:15.810Z,86
2023-01-25T16:55:15.849Z,87
2023-01-25T16:55:15.892Z,87
2023-01-25T16:55:15.942Z,87
2023-01-25T16:55:15.979Z,87
2023-01-25T16:55:16.021Z,87
2023-01-25T16:55:16.071Z,87
2023-01-25T16:55:16.110Z,87
2023-01-25T16:55:16.150Z,87
2023-01-25T16:55:16.191Z,87
2023-01-25T16:55:16.242Z,87
2023-01-25T16:55:16.280Z,74
2023-01-25T16:55:16.321Z,40
2023-01-25T16:55:16.362Z,40
2023-01-25T16:55:16.412Z,52
2023-01-25T16:55:16.450Z,54
2023-01-25T16:55:16.491Z,55
2023-01-25T16:55:16.531Z,55
2023-01-25T16:55:16.579Z,60
2023-01-25T16:55:16.632Z,60
2023-01-25T16:55:16.662Z,63
2023-01-25T16:55:16.709Z,63
2023-01-25T16:55:16.750Z,63
2023-01-25T16:55:16.792Z,63
2023-01-25T16:55:16.830Z,63
2023-01-25T16:55:16.881Z,60
2023-01-25T16:55:16.919Z,60
2023-01-25T16:55:16.961Z,60
2023-01-25T16:55:17.000Z,63
2023-01-25T16:55:17.050Z,63
2023-01-25T16:55:17.092Z,40
2023-01-25T16:55:17.130Z,87
2023-01-25T16:55:17.170Z,87
2023-01-25T16:55:17.220Z,87
2023-01-25T16:55:17.260Z,87
2023-01-25T16:55:17.299Z,87
